Black Mountain, North Carolina
Current Conditions -  °F | °C
As of 10:54 AM on Friday 21 Nov 2014 (Local Time) from KAVL Reporting Station
Clear Clear  
Wind Chill: 34°   Ceiling: Unl
Heat Index: 41°   Visibility: 10mi
Dew Point: 15°   Wind: 12mph
Humidity: 35%   Direction: 360°N
Pressure: 30.41"   Gusts: NA
Location:  35.62°N, 82.32°W
Report Text: KAVL 211554Z 36010KT 10SM CLR 05/M09 A3041 RMK AO2 SLP303 T00501094
Loading
Personal Weather Stations






























Interactive Weather Map New forecast layout! Learn more

10-Day Weather Forecast

Advertisements
Track Severe Weather on mobile